Time;durP1;ratioP1;P1;durP2;ratioP2;P2;SDS_P1;SDS_P2;PMS_P1;PMS_P2;Temp;Humidity;BMP_temperature;BMP_pressure;BME280_temperature;BME280_humidity;BME280_pressure;Samples;Min_cycle;Max_cycle;Signal;HPM_P1;HPM_P2
2022/03/15 00:00:53;;;;;;;7.15;6.13;;;9.90;56.70;;;;;;5052154;28;20061;-46
2022/03/15 00:03:21;;;;;;;7.47;6.00;;;9.90;56.70;;;;;;5040502;28;20036;-48
2022/03/15 00:05:50;;;;;;;7.50;5.53;;;9.80;56.60;;;;;;5043985;28;20061;-49
2022/03/15 00:08:19;;;;;;;7.47;6.10;;;9.80;56.80;;;;;;5047263;28;20053;-46
2022/03/15 00:10:47;;;;;;;6.50;5.53;;;9.80;56.80;;;;;;5031952;28;20033;-46
2022/03/15 00:13:20;;;;;;;7.95;5.57;;;9.80;56.70;;;;;;5030107;28;20828;-46
2022/03/15 00:15:48;;;;;;;8.75;5.70;;;9.70;56.70;;;;;;5028970;28;20033;-47
2022/03/15 00:18:15;;;;;;;6.25;5.65;;;9.70;56.80;;;;;;5037569;28;20084;-49
2022/03/15 00:20:44;;;;;;;6.55;5.38;;;9.70;56.90;;;;;;5027503;28;20068;-48
2022/03/15 00:23:11;;;;;;;7.68;5.32;;;9.70;57.00;;;;;;5043503;28;20040;-45
2022/03/15 00:25:40;;;;;;;6.88;5.50;;;9.70;56.90;;;;;;5049341;28;20080;-46
2022/03/15 00:28:06;;;;;;;6.75;5.43;;;9.60;57.00;;;;;;5033169;28;20065;-48
2022/03/15 00:30:37;;;;;;;6.10;5.35;;;9.60;56.90;;;;;;5030347;28;20045;-49
2022/03/15 00:33:04;;;;;;;6.85;5.03;;;9.60;56.80;;;;;;5044076;28;20044;-47
2022/03/15 00:35:32;;;;;;;6.35;5.68;;;9.50;56.90;;;;;;5052044;28;20037;-45
2022/03/15 00:38:02;;;;;;;7.32;5.57;;;9.50;56.80;;;;;;5044830;28;20044;-47
2022/03/15 00:40:31;;;;;;;5.85;4.93;;;9.50;56.90;;;;;;5023007;28;20096;-49
2022/03/15 00:42:58;;;;;;;7.35;5.28;;;9.40;57.40;;;;;;5039337;28;20051;-46
2022/03/15 00:45:27;;;;;;;5.75;4.93;;;9.40;56.90;;;;;;5037426;28;20041;-45
2022/03/15 00:47:56;;;;;;;7.38;5.38;;;9.40;57.00;;;;;;5030235;28;20125;-46
2022/03/15 00:50:23;;;;;;;8.90;5.28;;;9.30;57.10;;;;;;5032018;28;20029;-46
2022/03/15 00:52:51;;;;;;;7.00;4.93;;;9.30;57.10;;;;;;5043055;28;20037;-46
2022/03/15 00:55:19;;;;;;;9.23;5.93;;;9.30;57.10;;;;;;5052116;28;20041;-47
2022/03/15 00:57:46;;;;;;;9.00;5.43;;;9.20;57.00;;;;;;5051672;28;20041;-47
2022/03/15 01:00:16;;;;;;;9.32;5.60;;;9.20;57.10;;;;;;5035306;28;20706;-48
2022/03/15 01:02:46;;;;;;;8.98;4.97;;;9.20;57.10;;;;;;5049592;28;20040;-50
2022/03/15 01:05:15;;;;;;;8.93;5.30;;;9.20;57.00;;;;;;5052221;28;20041;-46
2022/03/15 01:07:45;;;;;;;6.30;5.43;;;9.10;57.10;;;;;;5041859;28;20036;-47
2022/03/15 01:10:13;;;;;;;5.90;5.30;;;9.10;57.30;;;;;;5032084;28;20049;-48
2022/03/15 01:12:44;;;;;;;6.75;5.13;;;9.10;57.40;;;;;;5048196;28;20041;-45
2022/03/15 01:15:11;;;;;;;6.68;5.28;;;9.10;57.40;;;;;;5048297;28;20029;-45
2022/03/15 01:17:38;;;;;;;9.80;5.75;;;9.00;57.40;;;;;;5030006;28;20048;-47
2022/03/15 01:20:08;;;;;;;7.30;5.40;;;9.10;57.50;;;;;;5050683;28;20033;-47
2022/03/15 01:22:36;;;;;;;8.57;5.65;;;9.00;57.60;;;;;;5051501;28;20060;-48
2022/03/15 01:25:07;;;;;;;9.07;5.82;;;9.00;57.60;;;;;;5054026;28;20048;-47
2022/03/15 01:27:37;;;;;;;9.07;5.30;;;9.00;57.70;;;;;;5034305;28;20109;-49
2022/03/15 01:30:08;;;;;;;8.02;5.22;;;9.00;57.70;;;;;;5049114;28;20044;-47
2022/03/15 01:32:35;;;;;;;8.05;5.80;;;9.00;57.80;;;;;;5035599;28;20044;-46
2022/03/15 01:35:06;;;;;;;7.50;5.30;;;8.90;57.80;;;;;;5047833;28;20029;-48
2022/03/15 01:37:33;;;;;;;8.68;5.57;;;8.90;57.80;;;;;;5045268;28;20493;-47
2022/03/15 01:40:09;;;;;;;8.70;5.28;;;8.90;57.90;;;;;;5031182;28;20060;-46
2022/03/15 01:42:35;;;;;;;7.65;5.35;;;8.90;58.00;;;;;;5031380;28;20106;-50
2022/03/15 01:45:05;;;;;;;7.32;5.80;;;8.90;58.00;;;;;;5036048;28;20107;-50
2022/03/15 01:47:32;;;;;;;7.13;5.60;;;8.90;58.10;;;;;;5034721;28;20029;-46
2022/03/15 01:50:02;;;;;;;6.20;5.18;;;8.90;58.20;;;;;;5043478;28;20041;-46
2022/03/15 01:52:34;;;;;;;6.28;4.80;;;8.90;58.20;;;;;;5051381;28;20409;-47
2022/03/15 01:55:03;;;;;;;7.60;5.10;;;8.90;58.50;;;;;;5051566;28;20053;-46
2022/03/15 01:57:38;;;;;;;9.80;6.00;;;8.90;58.40;;;;;;5039310;28;20049;-47
2022/03/15 02:00:09;;;;;;;6.50;5.03;;;8.80;58.30;;;;;;5065843;28;20715;-48
2022/03/15 02:02:36;;;;;;;8.02;5.32;;;8.80;58.50;;;;;;5048799;28;20118;-45
2022/03/15 02:05:04;;;;;;;7.07;5.65;;;8.80;58.40;;;;;;5024332;28;20053;-46
2022/03/15 02:07:31;;;;;;;6.00;4.97;;;8.80;58.50;;;;;;5038527;28;20056;-45
2022/03/15 02:10:05;;;;;;;8.07;5.32;;;8.80;58.50;;;;;;5048223;28;20479;-47
2022/03/15 02:12:37;;;;;;;9.75;6.07;;;8.80;58.60;;;;;;5030667;28;20042;-46
2022/03/15 02:15:11;;;;;;;7.20;5.47;;;8.80;58.80;;;;;;5029316;28;20499;-44
2022/03/15 02:17:39;;;;;;;5.97;5.00;;;8.80;58.80;;;;;;5045444;28;20171;-48
2022/03/15 02:20:07;;;;;;;6.88;5.70;;;8.80;59.00;;;;;;5050918;28;20041;-46
2022/03/15 02:22:37;;;;;;;7.43;4.93;;;8.90;59.30;;;;;;5033937;28;20095;-45
2022/03/15 02:25:08;;;;;;;7.07;5.63;;;8.90;59.30;;;;;;5035109;28;20052;-44
2022/03/15 02:27:35;;;;;;;8.13;6.00;;;8.90;59.30;;;;;;5045098;28;20040;-47
2022/03/15 02:30:06;;;;;;;8.82;5.93;;;8.90;59.30;;;;;;5050625;28;20045;-45
2022/03/15 02:32:34;;;;;;;7.18;5.22;;;8.90;59.40;;;;;;5035665;28;20034;-46
2022/03/15 02:35:01;;;;;;;6.63;5.45;;;8.90;59.40;;;;;;5043817;28;20455;-45
2022/03/15 02:37:28;;;;;;;9.63;5.28;;;9.00;59.40;;;;;;5046805;28;20448;-48
2022/03/15 02:39:57;;;;;;;6.93;4.80;;;9.00;59.40;;;;;;5028725;28;20438;-45
2022/03/15 02:42:24;;;;;;;6.22;5.00;;;9.00;59.50;;;;;;5026998;28;20053;-46
2022/03/15 02:44:51;;;;;;;6.18;4.45;;;9.00;59.40;;;;;;5043147;28;20095;-46
2022/03/15 02:47:18;;;;;;;6.32;4.65;;;9.00;59.40;;;;;;5050097;28;20033;-46
2022/03/15 02:49:47;;;;;;;6.78;4.78;;;9.00;59.40;;;;;;5044811;28;20568;-45
2022/03/15 02:52:14;;;;;;;7.68;5.45;;;9.00;59.50;;;;;;5028009;28;20522;-47
2022/03/15 02:54:41;;;;;;;6.72;5.15;;;9.00;59.40;;;;;;5047031;28;20029;-46
2022/03/15 02:57:12;;;;;;;6.13;5.10;;;9.00;59.40;;;;;;5048912;28;20040;-45
2022/03/15 02:59:42;;;;;;;4.93;3.63;;;9.00;59.40;;;;;;5050453;28;20040;-47
2022/03/15 03:02:09;;;;;;;7.35;5.50;;;9.00;59.40;;;;;;5036559;28;20059;-47
2022/03/15 03:04:36;;;;;;;8.32;5.78;;;9.00;59.50;;;;;;5046070;28;20116;-46
2022/03/15 03:07:06;;;;;;;8.38;6.10;;;9.00;59.60;;;;;;5048978;28;20041;-48
2022/03/15 03:09:33;;;;;;;9.32;6.05;;;9.00;59.70;;;;;;5032975;28;20088;-45
2022/03/15 03:12:00;;;;;;;6.97;5.63;;;9.00;59.80;;;;;;5043369;28;20044;-46
2022/03/15 03:14:27;;;;;;;8.65;6.03;;;9.00;59.90;;;;;;5049963;28;20071;-45
2022/03/15 03:16:53;;;;;;;6.95;6.32;;;9.00;59.80;;;;;;5030264;28;20065;-47
2022/03/15 03:19:20;;;;;;;7.00;5.40;;;9.00;59.80;;;;;;5032707;28;20463;-45
2022/03/15 03:21:48;;;;;;;6.18;5.35;;;9.10;59.80;;;;;;5029361;28;20045;-45
2022/03/15 03:24:19;;;;;;;7.82;5.78;;;9.00;59.80;;;;;;5063955;28;20052;-47
2022/03/15 03:26:46;;;;;;;6.68;5.72;;;9.10;59.80;;;;;;5048763;28;20416;-47
2022/03/15 03:29:13;;;;;;;10.30;6.00;;;9.10;59.80;;;;;;5026474;28;20095;-47
2022/03/15 03:31:42;;;;;;;7.68;5.35;;;9.10;59.80;;;;;;5028112;28;20458;-46
2022/03/15 03:34:11;;;;;;;7.28;5.63;;;9.00;59.80;;;;;;5028266;28;20037;-45
2022/03/15 03:36:39;;;;;;;9.13;6.03;;;9.00;59.80;;;;;;5026664;28;20048;-46
2022/03/15 03:39:22;;;;;;;8.90;6.15;;;9.00;59.90;;;;;;5028702;28;20041;-47
2022/03/15 03:41:50;;;;;;;7.85;5.80;;;9.00;59.70;;;;;;5040102;28;20036;-45
2022/03/15 03:44:21;;;;;;;7.75;5.38;;;9.00;59.80;;;;;;5049733;28;20175;-46
2022/03/15 03:46:48;;;;;;;8.70;5.18;;;9.00;59.80;;;;;;5038745;28;20045;-49
2022/03/15 03:49:15;;;;;;;8.05;5.57;;;9.00;59.90;;;;;;5038292;28;20047;-46
2022/03/15 03:51:43;;;;;;;10.23;6.38;;;9.00;60.00;;;;;;5059566;28;20045;-45
2022/03/15 03:54:10;;;;;;;10.18;6.50;;;9.00;60.30;;;;;;5050087;28;20110;-46
2022/03/15 03:56:37;;;;;;;10.65;6.25;;;9.00;60.40;;;;;;5036493;28;20041;-44
2022/03/15 03:59:04;;;;;;;9.25;6.47;;;9.00;60.60;;;;;;5035313;28;20033;-45
2022/03/15 04:01:30;;;;;;;7.95;5.60;;;9.00;60.80;;;;;;5047993;28;20047;-45
2022/03/15 04:04:05;;;;;;;11.40;6.45;;;9.00;60.80;;;;;;5048865;28;20041;-46
2022/03/15 04:06:32;;;;;;;8.00;6.07;;;9.00;60.80;;;;;;5026788;28;20092;-45
2022/03/15 04:09:05;;;;;;;9.27;6.03;;;9.10;60.80;;;;;;5047410;28;20106;-46
2022/03/15 04:11:40;;;;;;;10.15;5.78;;;9.10;61.00;;;;;;5033240;28;20519;-47
2022/03/15 04:14:11;;;;;;;12.68;5.63;;;9.10;60.70;;;;;;5027145;28;20049;-46
2022/03/15 04:16:39;;;;;;;11.55;6.10;;;9.10;60.70;;;;;;5031001;28;20042;-47
2022/03/15 04:19:06;;;;;;;19.05;6.78;;;9.10;60.70;;;;;;5044855;28;20049;-47
2022/03/15 04:21:33;;;;;;;9.77;5.88;;;9.10;60.70;;;;;;5048097;28;20049;-45
2022/03/15 04:23:59;;;;;;;13.02;6.25;;;9.10;60.80;;;;;;5034984;28;20041;-46
2022/03/15 04:26:27;;;;;;;12.40;6.07;;;9.20;60.80;;;;;;5034452;28;20041;-44
2022/03/15 04:28:54;;;;;;;11.73;5.90;;;9.10;60.80;;;;;;5049824;28;20094;-45
2022/03/15 04:31:22;;;;;;;13.82;6.90;;;9.20;61.00;;;;;;5048020;28;20045;-48
2022/03/15 04:33:49;;;;;;;9.90;6.03;;;9.20;61.00;;;;;;5030824;28;20071;-46
2022/03/15 04:36:17;;;;;;;10.68;6.32;;;9.20;60.90;;;;;;5041188;28;20053;-46
2022/03/15 04:38:49;;;;;;;10.15;6.95;;;9.20;60.90;;;;;;5038448;28;20124;-46
2022/03/15 04:41:18;;;;;;;11.13;6.35;;;9.20;60.80;;;;;;5036714;28;20042;-47
2022/03/15 04:43:45;;;;;;;9.05;5.70;;;9.20;60.80;;;;;;5029212;28;20237;-46
2022/03/15 04:46:14;;;;;;;10.50;5.32;;;9.20;60.70;;;;;;5045225;28;20049;-44
2022/03/15 04:48:42;;;;;;;11.82;6.30;;;9.30;60.70;;;;;;5052948;28;20041;-47
2022/03/15 04:51:13;;;;;;;10.82;6.05;;;9.20;60.60;;;;;;5032217;28;20121;-45
2022/03/15 04:53:45;;;;;;;15.07;6.50;;;9.20;60.50;;;;;;5031048;28;20073;-48
2022/03/15 04:56:12;;;;;;;10.63;5.50;;;9.20;60.50;;;;;;5051014;28;20110;-45
2022/03/15 04:58:39;;;;;;;13.07;6.30;;;9.20;60.50;;;;;;5052048;28;20045;-46
2022/03/15 05:01:06;;;;;;;10.98;6.50;;;9.20;60.50;;;;;;5049741;28;20496;-45
2022/03/15 05:03:35;;;;;;;8.60;5.30;;;9.20;60.60;;;;;;5032909;28;20052;-46
2022/03/15 05:06:09;;;;;;;8.40;5.32;;;9.10;60.60;;;;;;5034356;28;20099;-46
2022/03/15 05:08:36;;;;;;;11.80;6.43;;;9.10;60.60;;;;;;5032421;28;20052;-45
2022/03/15 05:11:06;;;;;;;12.23;5.90;;;9.10;60.50;;;;;;5030069;28;20041;-45
2022/03/15 05:13:40;;;;;;;14.15;6.40;;;9.10;60.60;;;;;;5029967;28;20479;-47
2022/03/15 05:16:17;;;;;;;10.27;5.85;;;9.10;60.80;;;;;;5033955;28;20075;-45
2022/03/15 05:18:50;;;;;;;9.30;5.68;;;9.10;61.50;;;;;;5052617;28;20484;-45
2022/03/15 05:21:17;;;;;;;10.18;6.30;;;9.10;61.00;;;;;;5025946;28;20587;-46
2022/03/15 05:23:46;;;;;;;13.07;6.43;;;9.00;60.70;;;;;;5031964;28;20045;-45
2022/03/15 05:26:14;;;;;;;10.85;5.90;;;9.10;60.80;;;;;;5032034;28;20041;-45
2022/03/15 05:28:42;;;;;;;10.80;5.60;;;9.00;60.80;;;;;;5031690;28;20440;-49
2022/03/15 05:31:10;;;;;;;8.68;5.50;;;9.00;60.80;;;;;;5031983;28;20037;-46
2022/03/15 05:33:38;;;;;;;9.23;5.07;;;9.00;60.90;;;;;;5034075;28;20056;-46
2022/03/15 05:36:05;;;;;;;7.53;5.70;;;9.00;60.90;;;;;;5032216;28;20034;-45
2022/03/15 05:38:32;;;;;;;9.25;5.68;;;9.00;61.00;;;;;;5026138;28;20034;-45
2022/03/15 05:40:58;;;;;;;7.68;5.50;;;9.00;61.10;;;;;;5032701;28;20059;-46
2022/03/15 05:43:45;;;;;;;8.90;5.53;;;8.90;61.10;;;;;;5032343;28;20053;-44
2022/03/15 05:46:15;;;;;;;10.55;5.22;;;8.90;61.00;;;;;;5028804;28;20038;-47
2022/03/15 05:48:42;;;;;;;8.73;5.18;;;8.90;61.10;;;;;;5033844;28;20405;-45
2022/03/15 05:51:09;;;;;;;12.43;5.63;;;8.90;61.20;;;;;;5030501;28;20041;-46
2022/03/15 05:53:36;;;;;;;7.95;5.18;;;8.90;61.20;;;;;;5033239;28;20037;-48
2022/03/15 05:56:03;;;;;;;11.07;5.03;;;8.90;61.30;;;;;;5029948;28;20033;-47
2022/03/15 05:58:30;;;;;;;9.02;4.85;;;8.90;61.40;;;;;;5030189;28;20084;-45
2022/03/15 06:00:57;;;;;;;6.85;5.10;;;8.90;61.40;;;;;;5035218;28;20166;-45
2022/03/15 06:03:23;;;;;;;9.85;5.43;;;8.90;61.50;;;;;;5051193;28;20041;-46
2022/03/15 06:05:53;;;;;;;6.18;4.50;;;8.90;61.60;;;;;;5043598;28;20141;-46
2022/03/15 06:08:20;;;;;;;8.68;4.63;;;8.90;61.70;;;;;;5031975;28;20069;-46
2022/03/15 06:10:47;;;;;;;9.25;4.93;;;8.90;61.70;;;;;;5029478;28;20392;-48
2022/03/15 06:13:13;;;;;;;7.82;4.95;;;8.90;61.80;;;;;;5041511;28;20094;-45
2022/03/15 06:15:41;;;;;;;8.00;4.60;;;8.90;61.90;;;;;;5029316;28;20048;-44
2022/03/15 06:18:08;;;;;;;8.07;4.97;;;8.90;62.10;;;;;;5032803;28;20040;-49
2022/03/15 06:20:38;;;;;;;8.57;4.47;;;8.90;62.10;;;;;;5050052;28;20120;-49
2022/03/15 06:23:05;;;;;;;7.57;4.75;;;8.90;62.10;;;;;;5040045;28;20073;-50
2022/03/15 06:25:32;;;;;;;8.15;4.47;;;8.90;62.20;;;;;;5024008;28;20505;-49
2022/03/15 06:27:59;;;;;;;15.20;5.25;;;8.90;62.30;;;;;;5029248;28;20487;-49
2022/03/15 06:30:27;;;;;;;12.00;5.05;;;9.00;62.40;;;;;;5046744;28;20079;-49
2022/03/15 06:32:54;;;;;;;6.82;4.00;;;9.00;62.50;;;;;;5049096;28;20442;-50
2022/03/15 06:35:21;;;;;;;7.50;4.28;;;9.00;62.50;;;;;;5031830;28;20449;-48
2022/03/15 06:37:50;;;;;;;7.38;3.85;;;9.00;62.60;;;;;;5033705;28;20072;-47
2022/03/15 06:40:24;;;;;;;11.27;4.30;;;9.00;62.80;;;;;;5030963;28;20045;-52
2022/03/15 06:42:54;;;;;;;10.50;4.40;;;9.10;63.00;;;;;;5030614;28;20045;-49
2022/03/15 06:45:22;;;;;;;6.35;4.13;;;9.10;63.20;;;;;;5039171;28;20041;-49
2022/03/15 06:47:52;;;;;;;6.25;4.25;;;9.10;63.00;;;;;;5031673;28;20120;-50
2022/03/15 06:50:20;;;;;;;9.35;4.55;;;9.20;63.20;;;;;;5032483;28;20788;-50
2022/03/15 06:52:47;;;;;;;6.45;3.88;;;9.20;63.20;;;;;;5029381;28;20634;-49
2022/03/15 06:55:14;;;;;;;4.95;3.67;;;9.30;63.30;;;;;;5028005;28;21981;-49
2022/03/15 06:57:43;;;;;;;7.35;4.05;;;9.30;63.40;;;;;;5028202;28;20087;-50
2022/03/15 07:00:13;;;;;;;4.93;3.60;;;9.40;63.50;;;;;;5031934;28;20423;-48
2022/03/15 07:02:40;;;;;;;8.25;4.32;;;9.40;63.70;;;;;;5027725;28;20857;-49
2022/03/15 07:05:08;;;;;;;6.00;3.85;;;9.50;63.60;;;;;;5025092;28;20196;-49
2022/03/15 07:07:38;;;;;;;6.68;4.25;;;9.50;63.70;;;;;;5033513;28;20047;-48
2022/03/15 07:10:07;;;;;;;6.72;3.92;;;9.60;63.80;;;;;;5030392;28;20050;-48
2022/03/15 07:12:37;;;;;;;6.45;4.20;;;9.60;63.80;;;;;;5033315;28;20452;-50
2022/03/15 07:15:06;;;;;;;5.40;3.78;;;9.70;63.80;;;;;;5026158;28;20041;-50
2022/03/15 07:17:33;;;;;;;7.57;4.63;;;9.80;63.80;;;;;;5025600;28;20033;-50
2022/03/15 07:20:00;;;;;;;7.80;5.15;;;9.80;63.70;;;;;;5030299;28;20046;-50
2022/03/15 07:22:27;;;;;;;11.10;5.35;;;9.80;63.60;;;;;;5027549;28;20095;-50
2022/03/15 07:24:54;;;;;;;9.13;5.00;;;9.90;63.60;;;;;;5030720;28;20171;-49
2022/03/15 07:27:21;;;;;;;7.05;4.55;;;9.90;63.50;;;;;;5047524;28;20102;-49
2022/03/15 07:29:48;;;;;;;9.30;4.22;;;10.00;63.60;;;;;;5030017;28;20053;-49
2022/03/15 07:32:15;;;;;;;8.45;4.35;;;10.10;63.60;;;;;;5029836;28;20037;-49
2022/03/15 07:34:42;;;;;;;7.53;4.25;;;10.10;63.60;;;;;;5034214;28;20034;-50
2022/03/15 07:37:12;;;;;;;6.93;4.38;;;10.10;63.60;;;;;;5042422;28;20041;-47
2022/03/15 07:39:40;;;;;;;4.45;4.05;;;10.20;63.60;;;;;;5030529;28;20033;-49
2022/03/15 07:42:06;;;;;;;11.07;4.72;;;10.30;63.70;;;;;;5027551;28;20124;-49
2022/03/15 07:44:34;;;;;;;6.00;4.18;;;10.30;63.70;;;;;;5039247;28;20174;-48
2022/03/15 07:47:00;;;;;;;8.55;4.20;;;10.40;63.50;;;;;;5050051;28;20048;-51
2022/03/15 07:49:27;;;;;;;6.82;4.07;;;10.40;63.40;;;;;;5041669;28;20092;-53
2022/03/15 07:51:56;;;;;;;9.90;4.78;;;10.50;63.40;;;;;;5032976;28;20030;-51
2022/03/15 07:54:23;;;;;;;7.85;4.65;;;10.60;63.30;;;;;;5032995;28;20084;-49
2022/03/15 07:56:50;;;;;;;6.03;4.47;;;10.60;63.30;;;;;;5029308;28;20042;-50
2022/03/15 07:59:21;;;;;;;5.63;4.30;;;10.70;63.20;;;;;;5031026;28;20044;-49
2022/03/15 08:01:49;;;;;;;7.70;5.35;;;10.70;62.90;;;;;;5028052;28;20048;-50
2022/03/15 08:04:16;;;;;;;7.93;5.18;;;10.80;62.70;;;;;;5029851;28;20073;-49
2022/03/15 08:06:43;;;;;;;11.07;4.82;;;10.90;62.60;;;;;;5029854;28;20038;-50
2022/03/15 08:09:10;;;;;;;8.82;4.50;;;10.90;62.60;;;;;;5029028;28;20044;-51
2022/03/15 08:11:37;;;;;;;10.68;4.93;;;11.00;62.40;;;;;;5029589;28;20095;-49
2022/03/15 08:14:07;;;;;;;9.75;5.38;;;11.00;62.30;;;;;;5046471;28;20544;-49
2022/03/15 08:16:34;;;;;;;10.52;5.30;;;11.10;62.30;;;;;;5029416;28;20472;-48
2022/03/15 08:19:01;;;;;;;11.30;5.53;;;11.20;62.20;;;;;;5029812;28;20050;-48
2022/03/15 08:21:31;;;;;;;12.07;5.57;;;11.20;62.20;;;;;;5037224;28;20053;-49
2022/03/15 08:23:58;;;;;;;8.30;5.05;;;11.30;62.20;;;;;;5050918;28;20049;-50
2022/03/15 08:26:25;;;;;;;6.53;5.35;;;11.30;62.10;;;;;;5035922;28;20559;-50
2022/03/15 08:28:52;;;;;;;6.60;4.45;;;11.40;62.20;;;;;;5031417;28;20037;-50
2022/03/15 08:31:19;;;;;;;8.57;4.82;;;11.40;62.20;;;;;;5045583;28;20079;-50
2022/03/15 08:33:46;;;;;;;7.68;4.93;;;11.50;62.10;;;;;;5053311;28;20044;-50
2022/03/15 08:36:13;;;;;;;10.45;5.07;;;11.50;62.00;;;;;;5052858;28;20075;-49
2022/03/15 08:38:41;;;;;;;7.25;4.43;;;11.50;61.90;;;;;;5028100;28;20559;-49
2022/03/15 08:41:08;;;;;;;8.70;5.10;;;11.60;61.70;;;;;;5041582;28;20780;-49
2022/03/15 08:43:36;;;;;;;10.98;5.25;;;11.70;61.60;;;;;;5031085;28;20100;-49
2022/03/15 08:46:03;;;;;;;11.23;6.15;;;11.70;61.50;;;;;;5030067;28;20064;-52
2022/03/15 08:48:29;;;;;;;11.52;5.90;;;11.70;61.30;;;;;;5030877;28;20087;-51
2022/03/15 08:50:59;;;;;;;8.43;5.50;;;11.70;61.20;;;;;;5034085;28;20045;-51
2022/03/15 08:53:32;;;;;;;10.60;6.25;;;11.80;61.10;;;;;;5047339;28;20036;-52
2022/03/15 08:56:00;;;;;;;8.63;5.55;;;11.80;61.10;;;;;;5038400;28;20037;-53
2022/03/15 08:58:27;;;;;;;9.25;5.07;;;11.90;61.00;;;;;;5035620;28;20045;-51
2022/03/15 09:00:54;;;;;;;7.75;5.20;;;11.90;60.90;;;;;;5034578;28;20046;-50
2022/03/15 09:03:22;;;;;;;5.63;4.82;;;11.90;60.80;;;;;;5032857;28;20120;-49
2022/03/15 09:05:49;;;;;;;12.45;5.72;;;12.00;60.90;;;;;;5029619;28;20041;-49
2022/03/15 09:08:18;;;;;;;9.55;5.43;;;12.00;61.00;;;;;;5032958;28;20036;-53
2022/03/15 09:10:47;;;;;;;8.05;5.57;;;12.00;61.00;;;;;;5040737;28;20037;-50
2022/03/15 09:13:15;;;;;;;11.40;6.40;;;12.00;61.00;;;;;;5028065;28;20040;-50
2022/03/15 09:15:42;;;;;;;6.60;5.38;;;12.10;61.00;;;;;;5031267;28;20038;-51
2022/03/15 09:18:09;;;;;;;10.68;5.68;;;12.20;61.00;;;;;;5035516;28;20045;-53
2022/03/15 09:20:36;;;;;;;10.25;5.70;;;12.20;60.90;;;;;;5052593;28;20095;-50
2022/03/15 09:23:03;;;;;;;7.50;5.55;;;12.20;60.90;;;;;;5052238;28;20045;-50
2022/03/15 09:25:32;;;;;;;10.75;6.28;;;12.30;60.70;;;;;;5065179;22;20522;-50
2022/03/15 09:27:59;;;;;;;10.60;5.88;;;12.30;60.60;;;;;;5047619;28;20060;-50
2022/03/15 09:30:30;;;;;;;9.57;5.72;;;12.30;60.50;;;;;;5050002;28;20060;-50
2022/03/15 09:32:58;;;;;;;9.70;5.50;;;12.40;60.40;;;;;;5053434;28;20041;-51
2022/03/15 09:35:25;;;;;;;11.95;5.20;;;12.50;60.30;;;;;;5053859;28;20041;-49
2022/03/15 09:37:52;;;;;;;11.07;6.03;;;12.50;60.30;;;;;;5054999;28;20068;-51
2022/03/15 09:40:25;;;;;;;11.30;5.53;;;12.50;60.00;;;;;;5057036;28;20041;-48
2022/03/15 09:43:00;;;;;;;11.07;5.90;;;12.60;60.00;;;;;;5054847;28;20045;-48
2022/03/15 09:45:35;;;;;;;9.40;4.82;;;12.60;59.80;;;;;;5071233;28;20048;-49
2022/03/15 09:48:14;;;;;;;9.50;5.35;;;12.70;59.70;;;;;;5071343;28;20052;-51
2022/03/15 09:50:43;;;;;;;7.45;6.20;;;12.70;59.50;;;;;;5051816;28;20065;-48
2022/03/15 09:53:10;;;;;;;7.43;5.22;;;12.70;59.40;;;;;;5066165;28;20509;-49
2022/03/15 09:55:37;;;;;;;7.30;4.82;;;12.70;59.50;;;;;;5060149;28;20032;-51
2022/03/15 09:58:05;;;;;;;10.50;5.28;;;12.70;59.70;;;;;;5071038;28;20045;-50
2022/03/15 10:00:34;;;;;;;9.57;4.78;;;12.80;60.00;;;;;;5051250;28;20086;-52
2022/03/15 10:03:03;;;;;;;7.68;4.65;;;12.80;60.20;;;;;;5055356;28;20386;-48
2022/03/15 10:05:30;;;;;;;11.43;5.15;;;12.80;60.60;;;;;;5062540;28;20037;-49
2022/03/15 10:07:58;;;;;;;9.93;5.45;;;12.80;61.30;;;;;;5070197;28;20059;-49
2022/03/15 10:10:25;;;;;;;10.48;5.13;;;12.90;60.90;;;;;;5052074;28;20064;-49
2022/03/15 10:12:52;;;;;;;7.40;5.03;;;12.90;60.90;;;;;;5045265;28;20091;-52
2022/03/15 10:15:21;;;;;;;7.93;5.03;;;12.90;61.00;;;;;;5067517;28;20036;-52
2022/03/15 10:17:55;;;;;;;7.30;4.18;;;13.00;61.20;;;;;;5049122;28;20037;-52
2022/03/15 10:20:29;;;;;;;9.57;4.78;;;13.00;61.60;;;;;;5031494;28;20041;-49
2022/03/15 10:23:01;;;;;;;10.43;4.70;;;13.00;61.40;;;;;;5047090;28;20071;-48
2022/03/15 10:25:34;;;;;;;11.32;5.30;;;13.00;61.40;;;;;;5024963;28;1066473;-48
2022/03/15 10:28:04;;;;;;;7.47;5.20;;;13.00;61.60;;;;;;5071336;28;20048;-49
2022/03/15 10:30:31;;;;;;;7.97;4.88;;;13.10;62.00;;;;;;5059703;28;20107;-49
2022/03/15 10:32:59;;;;;;;5.10;4.60;;;13.10;62.30;;;;;;5057320;28;20064;-50
2022/03/15 10:35:48;;;;;;;8.45;3.95;;;13.10;62.50;;;;;;5071444;28;20090;-50
2022/03/15 10:38:17;;;;;;;6.63;3.97;;;13.20;63.50;;;;;;5061499;28;20488;-49
2022/03/15 10:40:47;;;;;;;4.88;4.05;;;13.20;62.40;;;;;;5046822;28;20037;-49
2022/03/15 10:43:23;;;;;;;7.22;4.20;;;13.30;62.60;;;;;;5068482;28;20503;-51
2022/03/15 10:45:56;;;;;;;5.97;3.95;;;13.30;62.40;;;;;;5071186;28;20052;-49
2022/03/15 10:48:30;;;;;;;5.82;3.25;;;13.40;62.20;;;;;;5054371;28;20045;-50
2022/03/15 10:50:59;;;;;;;4.13;3.22;;;13.40;62.40;;;;;;5046499;28;20098;-52
2022/03/15 10:53:35;;;;;;;5.47;3.53;;;13.50;62.30;;;;;;5064257;28;20103;-51
2022/03/15 10:56:22;;;;;;;10.02;4.75;;;13.50;62.50;;;;;;5071455;28;20041;-51
2022/03/15 10:58:55;;;;;;;4.63;3.45;;;13.60;62.90;;;;;;5043190;28;20063;-52
2022/03/15 11:01:24;;;;;;;5.47;3.20;;;13.60;62.30;;;;;;5049795;28;20522;-49
2022/03/15 11:03:57;;;;;;;4.18;3.03;;;13.70;62.40;;;;;;5070788;28;20036;-50
2022/03/15 11:06:41;;;;;;;8.15;3.92;;;13.70;62.40;;;;;;5070873;28;20044;-49
2022/03/15 11:09:24;;;;;;;3.55;3.05;;;13.70;63.00;;;;;;5050144;28;20072;-49
2022/03/15 11:12:02;;;;;;;5.65;3.70;;;13.80;62.80;;;;;;5064187;28;20064;-48
2022/03/15 11:14:41;;;;;;;5.82;2.83;;;13.80;63.40;;;;;;5067582;28;20048;-51
2022/03/15 11:17:17;;;;;;;4.88;3.60;;;13.90;63.70;;;;;;5049083;28;20120;-50
2022/03/15 11:19:47;;;;;;;5.13;4.13;;;13.90;64.10;;;;;;5047779;28;20056;-48
2022/03/15 11:22:16;;;;;;;6.57;5.28;;;13.90;63.60;;;;;;5053087;28;20470;-49
2022/03/15 11:24:48;;;;;;;9.07;5.35;;;14.00;63.50;;;;;;5067044;28;20040;-50
2022/03/15 11:27:17;;;;;;;8.38;4.68;;;14.10;63.50;;;;;;5058221;28;20064;-50
2022/03/15 11:29:45;;;;;;;11.85;5.22;;;14.10;63.20;;;;;;5055956;28;20431;-48
2022/03/15 11:32:14;;;;;;;7.22;4.72;;;14.10;62.90;;;;;;5067492;28;20044;-50
2022/03/15 11:34:42;;;;;;;8.43;5.03;;;14.10;62.80;;;;;;5069024;28;20045;-49
2022/03/15 11:37:12;;;;;;;7.53;4.38;;;14.10;62.40;;;;;;5051674;28;20049;-51
2022/03/15 11:39:39;;;;;;;6.97;4.45;;;14.20;62.40;;;;;;5050231;28;20752;-49
2022/03/15 11:42:09;;;;;;;6.82;4.35;;;14.10;62.50;;;;;;5051796;28;20044;-51
2022/03/15 11:45:14;;;;;;;7.35;4.53;;;14.20;62.40;;;;;;5062958;28;20052;-48
2022/03/15 11:48:04;;;;;;;6.65;4.55;;;14.20;63.00;;;;;;5051154;28;20055;-51
2022/03/15 11:50:49;;;;;;;;;;;14.30;62.40;;;;;;5057582;28;20392;-49
2022/03/15 11:53:39;;;;;;;6.35;4.82;;;14.30;62.40;;;;;;5068677;28;19920;-48
2022/03/15 11:56:20;;;;;;;8.52;5.05;;;14.40;62.70;;;;;;5049282;28;20513;-52
2022/03/15 11:58:54;;;;;;;10.43;5.28;;;14.40;62.20;;;;;;5066085;28;20041;-49
2022/03/15 12:01:22;;;;;;;7.72;4.93;;;14.50;62.40;;;;;;5035242;28;20532;-49
2022/03/15 12:03:56;;;;;;;8.02;4.57;;;14.50;61.90;;;;;;5029827;28;20626;-51
2022/03/15 12:06:25;;;;;;;8.77;5.32;;;14.60;62.00;;;;;;5048588;28;20055;-51
2022/03/15 12:08:55;;;;;;;6.65;4.90;;;14.60;61.90;;;;;;5064666;28;20040;-49
2022/03/15 12:11:34;;;;;;;9.93;4.70;;;14.70;61.70;;;;;;5056354;28;20045;-50
2022/03/15 12:14:08;;;;;;;9.73;4.78;;;14.70;61.80;;;;;;5047718;28;20400;-48
2022/03/15 12:16:44;;;;;;;12.18;4.90;;;14.80;62.40;;;;;;5060319;28;20060;-49
2022/03/15 12:19:23;;;;;;;9.25;5.30;;;14.80;62.20;;;;;;5068620;28;20075;-51
2022/03/15 12:21:54;;;;;;;9.70;5.82;;;14.80;61.50;;;;;;5067929;28;20055;-52
2022/03/15 12:24:40;;;;;;;11.60;5.00;;;14.90;61.30;;;;;;5044080;28;20066;-53
2022/03/15 12:27:16;;;;;;;7.00;4.65;;;14.90;61.10;;;;;;5067811;28;20044;-48
2022/03/15 12:30:00;;;;;;;7.38;4.97;;;15.00;61.30;;;;;;5055624;28;20507;-49
2022/03/15 12:32:27;;;;;;;7.75;5.40;;;15.10;61.50;;;;;;5046117;28;20033;-49
2022/03/15 12:34:56;;;;;;;8.18;5.10;;;15.10;60.90;;;;;;5067352;28;20040;-48
2022/03/15 12:37:36;;;;;;;6.90;5.10;;;15.10;61.30;;;;;;5066279;28;20044;-49
2022/03/15 12:40:06;;;;;;;9.82;5.10;;;15.20;61.40;;;;;;5047671;28;20071;-50
2022/03/15 12:42:40;;;;;;;6.03;4.85;;;15.30;60.80;;;;;;5041256;28;20041;-50
2022/03/15 12:45:12;;;;;;;6.30;4.65;;;15.40;60.40;;;;;;5063756;28;20036;-50
2022/03/15 12:47:41;;;;;;;5.37;4.20;;;15.50;60.50;;;;;;5068652;28;20143;-55
2022/03/15 12:50:12;;;;;;;9.15;4.97;;;15.60;60.60;;;;;;5060402;28;20284;-52
2022/03/15 12:52:52;;;;;;;6.40;4.57;;;15.70;60.40;;;;;;5047106;28;20051;-50
2022/03/15 12:55:34;;;;;;;8.27;5.15;;;15.80;60.70;;;;;;5057766;28;20044;-51
2022/03/15 12:58:06;;;;;;;8.87;5.00;;;15.90;60.20;;;;;;5049978;28;20103;-49
2022/03/15 13:00:35;;;;;;;10.40;4.57;;;16.00;59.90;;;;;;5040873;28;20055;-50
2022/03/15 13:03:13;;;;;;;7.35;4.03;;;16.10;59.50;;;;;;5049270;28;20049;-49